Saint Paul, Minnesota
Current Conditions -  °F | °C
As of 1:53 AM on Monday 22 Dec 2014 (Local Time) from KSTP Reporting Station
Haze Haze  
Wind Chill: 30°   Ceiling: 800
Heat Index: 38°   Visibility: 2.5mi
Dew Point: 37°   Wind: 12mph
Humidity: 97%   Direction: 150°SSE
Pressure: 29.72"   Gusts: NA
Location:  44.93°N, 93.07°W
Report Text: KSTP 220753Z AUTO 15010KT 2 1/2SM BR OVC008 03/03 A2972 RMK AO2 RAB04E37 SLP067 P0000 T00330028
Loading
Personal Weather Stations






























Interactive Weather Map New forecast layout! Learn more

10-Day Weather Forecast

Advertisements
Track Severe Weather on mobile